createdAt,value
2023-01-28T00:03:58.048Z,16.10
2023-01-28T00:09:21.541Z,14.10
2023-01-28T00:14:51.329Z,13.07
2023-01-28T00:20:20.889Z,16.05
2023-01-28T00:25:52.018Z,11.90
2023-01-28T00:31:28.047Z,10.40
2023-01-28T00:36:40.403Z,10.23
2023-01-28T00:41:50.810Z,12.70
2023-01-28T00:47:01.401Z,12.45
2023-01-28T00:52:08.424Z,13.10
2023-01-28T00:57:17.262Z,10.95
2023-01-28T01:02:25.711Z,12.10
2023-01-28T01:07:42.357Z,11.10
2023-01-28T01:12:50.036Z,14.10
2023-01-28T01:17:58.847Z,12.95
2023-01-28T01:23:05.647Z,14.95
2023-01-28T01:28:12.004Z,13.32
2023-01-28T01:33:20.200Z,10.50
2023-01-28T01:38:27.571Z,12.00
2023-01-28T01:43:52.855Z,13.63
2023-01-28T01:49:09.927Z,15.13
2023-01-28T01:54:18.505Z,12.20
2023-01-28T01:59:30.782Z,10.98
2023-01-28T02:04:43.778Z,11.00
2023-01-28T02:09:50.411Z,12.63
2023-01-28T02:15:04.983Z,12.70
2023-01-28T02:20:15.897Z,10.18
2023-01-28T02:26:15.007Z,14.00
2023-01-28T02:31:29.562Z,9.65
2023-01-28T02:36:43.557Z,12.80
2023-01-28T02:41:58.260Z,12.82
2023-01-28T02:47:29.288Z,10.73
2023-01-28T02:53:15.827Z,13.50
2023-01-28T02:58:31.692Z,13.90
2023-01-28T03:03:52.100Z,10.88
2023-01-28T03:09:21.120Z,11.35
2023-01-28T03:14:46.822Z,15.40
2023-01-28T03:20:14.016Z,10.82
2023-01-28T03:25:40.369Z,14.57
2023-01-28T03:31:12.291Z,12.60
2023-01-28T03:36:44.825Z,10.98
2023-01-28T03:42:08.347Z,11.80
2023-01-28T03:47:20.653Z,11.98
2023-01-28T03:52:32.438Z,11.90
2023-01-28T03:58:02.328Z,14.65
2023-01-28T04:03:16.448Z,15.43
2023-01-28T04:08:53.097Z,14.45
2023-01-28T04:14:25.812Z,16.60
2023-01-28T04:19:43.601Z,13.73
2023-01-28T04:24:51.683Z,14.10
2023-01-28T04:29:58.942Z,12.10
2023-01-28T04:35:19.274Z,13.90
2023-01-28T04:40:39.556Z,16.60
2023-01-28T04:45:52.400Z,13.73
2023-01-28T04:51:06.244Z,13.75
2023-01-28T04:56:24.182Z,15.77
2023-01-28T05:01:32.006Z,14.57
2023-01-28T05:06:40.471Z,14.77
2023-01-28T05:11:53.413Z,16.70
2023-01-28T05:17:01.351Z,15.82
2023-01-28T05:22:08.054Z,16.63
2023-01-28T05:27:33.125Z,16.02
2023-01-28T05:32:39.890Z,20.20
2023-01-28T05:37:48.255Z,17.02
2023-01-28T05:42:58.586Z,20.75
2023-01-28T05:48:34.598Z,15.32
2023-01-28T05:53:52.053Z,16.63
2023-01-28T05:58:59.969Z,19.48
2023-01-28T06:04:07.606Z,13.82
2023-01-28T06:09:14.391Z,20.58
2023-01-28T06:14:23.435Z,17.55
2023-01-28T06:19:50.572Z,17.63
2023-01-28T06:24:57.279Z,16.15
2023-01-28T06:30:06.545Z,17.00
2023-01-28T06:35:13.124Z,17.63
2023-01-28T06:40:20.631Z,18.65
2023-01-28T06:45:29.089Z,18.40
2023-01-28T06:50:35.710Z,11.47
2023-01-28T06:55:42.281Z,14.48
2023-01-28T07:00:50.455Z,16.15
2023-01-28T07:05:59.925Z,18.85
2023-01-28T07:11:07.227Z,15.32
2023-01-28T07:16:15.444Z,18.13
2023-01-28T07:21:22.281Z,17.45
2023-01-28T07:26:28.778Z,13.85
2023-01-28T07:31:37.137Z,17.00
2023-01-28T07:36:44.184Z,16.20
2023-01-28T07:41:53.004Z,17.08
2023-01-28T07:47:28.921Z,18.83
2023-01-28T07:52:39.288Z,14.15
2023-01-28T07:57:54.178Z,12.73
2023-01-28T08:03:04.558Z,13.60
2023-01-28T08:08:11.543Z,14.15
2023-01-28T08:13:19.774Z,12.85
2023-01-28T08:18:27.965Z,16.03
2023-01-28T08:23:35.555Z,15.20
2023-01-28T08:28:42.293Z,16.30
2023-01-28T08:33:53.269Z,17.15
2023-01-28T08:39:00.340Z,17.10
2023-01-28T08:44:07.533Z,15.60
2023-01-28T08:49:16.048Z,20.02
2023-01-28T08:54:22.948Z,14.32
2023-01-28T08:59:29.611Z,18.50
2023-01-28T09:04:37.838Z,17.00
2023-01-28T09:09:45.141Z,13.83
2023-01-28T09:14:52.613Z,13.23
2023-01-28T09:20:00.769Z,19.25
2023-01-28T09:25:09.518Z,17.80
2023-01-28T09:30:17.520Z,18.52
2023-01-28T09:35:27.625Z,15.30
2023-01-28T09:40:43.735Z,16.13
2023-01-28T09:45:57.390Z,14.25
2023-01-28T09:51:09.761Z,14.30
2023-01-28T09:56:26.255Z,17.13
2023-01-28T10:01:45.002Z,15.65
2023-01-28T10:07:07.536Z,17.23
2023-01-28T10:12:42.386Z,15.52
2023-01-28T10:17:53.620Z,14.48
2023-01-28T10:23:13.872Z,13.75
2023-01-28T10:28:25.734Z,13.93
2023-01-28T10:33:37.868Z,12.13
2023-01-28T10:38:46.133Z,12.90
2023-01-28T10:43:52.781Z,12.10
2023-01-28T10:49:12.869Z,19.58
2023-01-28T10:54:27.320Z,17.00
2023-01-28T10:59:36.997Z,16.42
2023-01-28T11:04:43.336Z,16.50
2023-01-28T11:09:53.723Z,16.70
2023-01-28T11:15:03.055Z,17.13
2023-01-28T11:20:23.065Z,14.50
2023-01-28T11:25:35.824Z,13.37
2023-01-28T11:30:43.870Z,16.73
2023-01-28T11:35:57.945Z,13.73
2023-01-28T11:41:06.495Z,13.88
2023-01-28T11:46:40.338Z,14.98
2023-01-28T11:51:58.220Z,15.18
2023-01-28T11:57:26.381Z,15.85
2023-01-28T12:02:55.211Z,15.87
2023-01-28T12:08:14.090Z,12.43
2023-01-28T12:13:38.559Z,16.05
2023-01-28T12:19:29.299Z,14.43
2023-01-28T12:25:00.330Z,13.05
2023-01-28T12:30:26.454Z,12.45
2023-01-28T12:35:52.959Z,14.45
2023-01-28T12:41:07.067Z,15.82
2023-01-28T12:46:27.086Z,16.77
2023-01-28T12:51:44.698Z,16.92
2023-01-28T12:56:55.362Z,18.08
2023-01-28T13:02:26.775Z,15.95
2023-01-28T13:07:40.303Z,13.02
2023-01-28T13:20:40.208Z,14.38
2023-01-28T13:25:58.742Z,16.55
2023-01-28T13:31:10.502Z,13.57
2023-01-28T13:36:29.348Z,15.43
2023-01-28T13:41:45.283Z,15.23
2023-01-28T13:46:51.929Z,20.63
2023-01-28T13:52:09.392Z,17.90
2023-01-28T13:58:13.526Z,20.70
2023-01-28T14:04:11.078Z,16.75
2023-01-28T14:09:46.890Z,14.30
2023-01-28T14:15:40.714Z,15.40
2023-01-28T14:20:48.460Z,13.77
2023-01-28T14:26:09.803Z,13.35
2023-01-28T14:31:26.833Z,12.05
2023-01-28T14:36:34.103Z,15.73
2023-01-28T14:41:46.112Z,15.73
2023-01-28T14:47:18.609Z,13.00
2023-01-28T14:53:16.694Z,13.82
2023-01-28T14:58:30.040Z,11.57
2023-01-28T15:03:37.284Z,13.95
2023-01-28T15:08:44.456Z,12.25
2023-01-28T15:13:57.760Z,14.45
2023-01-28T15:19:04.686Z,12.07
2023-01-28T15:24:17.258Z,16.80
2023-01-28T15:29:36.490Z,16.65
2023-01-28T15:34:51.010Z,16.52
2023-01-28T15:40:09.349Z,14.48
2023-01-28T15:45:24.535Z,13.73
2023-01-28T15:50:34.148Z,13.13
2023-01-28T15:55:44.391Z,11.38
2023-01-28T16:01:17.809Z,4.60
2023-01-28T16:06:37.388Z,10.77
2023-01-28T16:11:47.578Z,18.88
2023-01-28T16:16:59.543Z,12.32
2023-01-28T16:22:09.574Z,13.52
2023-01-28T16:27:26.902Z,13.18
2023-01-28T16:32:40.153Z,11.13
2023-01-28T16:37:48.625Z,8.13
2023-01-28T16:42:57.691Z,10.27
2023-01-28T16:48:13.010Z,16.10
2023-01-28T16:53:28.589Z,14.50
2023-01-28T16:58:38.453Z,7.40
2023-01-28T17:03:51.210Z,5.63
2023-01-28T17:09:01.725Z,11.75
2023-01-28T17:14:10.733Z,16.77
2023-01-28T17:19:31.901Z,19.00
2023-01-28T17:24:59.649Z,21.33
2023-01-28T17:30:12.559Z,16.85
2023-01-28T17:35:23.402Z,21.05
2023-01-28T17:40:33.690Z,19.48
2023-01-28T17:45:43.490Z,12.50
2023-01-28T17:51:01.168Z,12.25
2023-01-28T17:56:21.931Z,11.10
2023-01-28T18:01:39.775Z,13.02
2023-01-28T18:06:55.100Z,10.00
2023-01-28T18:12:06.339Z,9.25
2023-01-28T18:17:16.693Z,6.93
2023-01-28T18:22:30.375Z,7.18
2023-01-28T18:27:45.853Z,5.18
2023-01-28T18:32:58.428Z,7.80
2023-01-28T18:38:12.482Z,21.75
2023-01-28T18:43:24.730Z,11.85
2023-01-28T18:48:36.565Z,8.60
2023-01-28T18:53:51.409Z,9.70
2023-01-28T18:59:31.389Z,7.72
2023-01-28T19:04:52.670Z,7.43
2023-01-28T19:11:16.916Z,4.70
2023-01-28T19:17:43.673Z,8.25
2023-01-28T19:23:57.925Z,6.18
2023-01-28T19:29:52.224Z,5.72
2023-01-28T19:35:42.044Z,6.53
2023-01-28T19:41:15.750Z,5.95
2023-01-28T19:46:45.557Z,8.15
2023-01-28T19:52:42.446Z,6.75
2023-01-28T20:35:28.496Z,10.07
2023-01-28T20:42:13.977Z,7.30
2023-01-28T20:53:50.587Z,9.80
2023-01-28T20:59:10.886Z,7.82
2023-01-28T21:04:32.055Z,16.15
2023-01-28T21:09:51.768Z,12.60
2023-01-28T21:15:12.449Z,8.82
2023-01-28T21:20:35.334Z,6.95
2023-01-28T21:25:53.999Z,8.63
2023-01-28T21:31:21.509Z,7.93
2023-01-28T21:36:41.589Z,7.05
2023-01-28T21:42:00.996Z,9.48
2023-01-28T21:47:19.846Z,8.57
2023-01-28T21:52:41.883Z,7.07
2023-01-28T21:58:21.386Z,9.15
2023-01-28T22:03:42.065Z,7.68
2023-01-28T22:09:03.719Z,6.55
2023-01-28T22:14:20.903Z,8.43
2023-01-28T22:19:38.063Z,7.75
2023-01-28T22:24:56.865Z,8.07
2023-01-28T22:30:18.521Z,7.45
2023-01-28T22:35:36.049Z,8.90
2023-01-28T22:40:54.213Z,8.88
2023-01-28T22:46:10.669Z,11.30
2023-01-28T22:51:32.904Z,8.35
2023-01-28T22:56:55.491Z,4.75
2023-01-28T23:02:18.125Z,10.45
2023-01-28T23:07:36.610Z,7.50
2023-01-28T23:12:58.069Z,6.38
2023-01-28T23:18:45.804Z,5.68
2023-01-28T23:24:18.939Z,5.13
2023-01-28T23:29:39.378Z,7.57
2023-01-28T23:34:53.455Z,5.32
2023-01-28T23:40:15.097Z,6.43
2023-01-28T23:45:34.265Z,6.32
2023-01-28T23:50:48.844Z,6.78
2023-01-28T23:56:05.075Z,7.18
